createdAt,value
2018-05-16T04:09:42.589Z,40
2018-05-16T04:10:08.060Z,40
2018-05-16T04:10:33.524Z,40
2018-05-16T04:10:59.024Z,40
2018-05-16T04:11:24.501Z,45
2018-05-16T04:11:50.014Z,45
2018-05-16T04:12:15.987Z,45
2018-05-16T04:12:41.436Z,45
2018-05-16T04:13:06.951Z,45
2018-05-16T04:13:32.422Z,45
2018-05-16T04:13:57.872Z,45
2018-05-16T04:14:23.348Z,45
2018-05-16T04:14:48.820Z,45
2018-05-16T04:15:14.320Z,50
2018-05-16T04:15:39.831Z,50
2018-05-16T04:16:05.349Z,50
2018-05-16T04:16:30.806Z,50
2018-05-16T04:16:56.388Z,50
2018-05-16T04:17:21.887Z,50
2018-05-16T04:17:47.370Z,50
2018-05-16T04:18:12.883Z,50
2018-05-16T04:18:38.417Z,50
2018-05-16T04:19:03.869Z,50
2018-05-16T04:19:29.401Z,55
2018-05-16T04:19:54.891Z,55
2018-05-16T04:20:20.365Z,55
2018-05-16T04:20:45.886Z,55
2018-05-16T04:21:11.350Z,55
2018-05-16T04:21:36.846Z,55
2018-05-16T04:23:00.881Z,60
2018-05-16T04:23:26.392Z,60
2018-05-16T04:23:51.846Z,60
2018-05-16T04:24:17.321Z,60
2018-05-16T04:24:42.796Z,65
2018-05-16T04:25:08.287Z,65
2018-05-16T04:25:33.768Z,65
2018-05-16T04:25:59.297Z,65
2018-05-16T04:26:24.790Z,65
2018-05-16T04:26:50.296Z,70
2018-05-16T04:28:19.401Z,70
2018-05-16T04:28:44.948Z,75
2018-05-16T04:29:10.379Z,75
2018-05-16T04:29:35.857Z,80
2018-05-16T04:30:01.365Z,80
2018-05-16T04:30:26.817Z,80
2018-05-16T04:30:52.326Z,80
2018-05-16T04:31:17.887Z,85
2018-05-16T04:31:43.628Z,85
2018-05-16T04:32:09.393Z,85
2018-05-16T04:32:34.859Z,85
2018-05-16T04:33:00.374Z,90
2018-05-16T04:33:25.853Z,90
2018-05-16T04:33:51.425Z,90
2018-05-16T04:34:16.891Z,95
2018-05-16T04:34:42.361Z,95
2018-05-16T04:35:07.845Z,95
2018-05-16T04:35:33.379Z,95
2018-05-16T04:35:58.789Z,95
2018-05-16T04:36:24.284Z,95
2018-05-16T04:36:49.770Z,95
2018-05-16T04:37:15.329Z,100
2018-05-16T04:37:40.822Z,100
2018-05-16T04:38:06.322Z,100
2018-05-16T04:38:31.818Z,100
2018-05-16T04:38:57.321Z,105
2018-05-16T04:39:22.945Z,105
2018-05-16T04:39:48.435Z,105
2018-05-16T04:40:13.983Z,105
2018-05-16T04:40:39.575Z,105
2018-05-16T04:41:05.296Z,110
2018-05-16T04:41:30.849Z,110
2018-05-16T04:41:56.365Z,110
2018-05-16T04:42:21.873Z,110
2018-05-16T04:42:47.559Z,110
2018-05-16T04:43:13.665Z,110
2018-05-16T04:43:39.754Z,115
2018-05-16T04:44:05.331Z,115
2018-05-16T04:44:31.048Z,115
2018-05-16T04:44:56.628Z,115
2018-05-16T04:45:22.319Z,115
2018-05-16T04:45:47.891Z,115
2018-05-16T04:46:13.700Z,120
2018-05-16T04:46:39.549Z,120
2018-05-16T04:47:05.067Z,120
2018-05-16T04:47:30.602Z,120
2018-05-16T04:47:56.154Z,120
2018-05-16T04:48:21.804Z,120
2018-05-16T04:48:47.680Z,120
2018-05-16T04:49:13.476Z,125
2018-05-16T04:49:39.228Z,125
2018-05-16T04:50:04.878Z,125
2018-05-16T04:50:30.455Z,125
2018-05-16T04:50:56.174Z,130
2018-05-16T04:51:21.684Z,130
2018-05-16T04:51:47.212Z,130
2018-05-16T04:52:12.939Z,130
2018-05-16T04:52:38.501Z,130
2018-05-16T04:53:04.140Z,130
2018-05-16T04:53:29.875Z,130
2018-05-16T04:53:55.510Z,130
2018-05-16T04:54:21.191Z,130
2018-05-16T04:54:46.922Z,135
2018-05-16T04:55:12.898Z,135
2018-05-16T04:55:38.426Z,135
2018-05-16T04:56:04.242Z,135
2018-05-16T04:56:29.922Z,135
2018-05-16T04:56:55.812Z,135
2018-05-16T04:57:21.517Z,135
2018-05-16T04:57:47.307Z,135
2018-05-16T04:58:12.963Z,140
2018-05-16T04:58:38.520Z,135
2018-05-16T04:59:04.079Z,140
2018-05-16T04:59:29.647Z,140
2018-05-16T04:59:55.468Z,140
2018-05-16T05:00:20.952Z,140
2018-05-16T05:00:46.475Z,145
2018-05-16T05:01:12.090Z,145
2018-05-16T05:01:37.685Z,145
2018-05-16T05:02:03.567Z,145
2018-05-16T05:02:29.253Z,145
2018-05-16T05:02:54.888Z,150
2018-05-16T05:03:20.641Z,150
2018-05-16T05:03:46.132Z,155
2018-05-16T05:04:11.833Z,150
2018-05-16T05:04:37.606Z,155
2018-05-16T05:05:03.346Z,155
2018-05-16T05:05:28.935Z,160
2018-05-16T05:05:54.483Z,160
2018-05-16T05:06:20.019Z,160
2018-05-16T05:06:45.645Z,160
2018-05-16T05:07:11.221Z,160
2018-05-16T05:07:36.837Z,165
2018-05-16T05:08:02.431Z,165
2018-05-16T05:08:28.013Z,165
2018-05-16T05:08:53.611Z,165
2018-05-16T05:09:19.224Z,170
2018-05-16T05:09:45.035Z,170
2018-05-16T05:10:10.526Z,170
2018-05-16T05:10:36.297Z,170
2018-05-16T05:11:01.846Z,170
2018-05-16T05:11:27.396Z,170
2018-05-16T05:11:53.209Z,170
2018-05-16T05:12:18.642Z,170
2018-05-16T05:12:44.432Z,175
2018-05-16T05:13:10.223Z,175
2018-05-16T05:13:35.904Z,175
2018-05-16T05:14:01.551Z,175
2018-05-16T05:14:27.169Z,175
2018-05-16T05:14:52.788Z,175
2018-05-16T05:15:18.492Z,175
2018-05-16T05:15:44.080Z,180
2018-05-16T05:16:09.583Z,180
2018-05-16T05:16:35.245Z,180
2018-05-16T05:17:00.750Z,180
2018-05-16T05:17:26.256Z,180
2018-05-16T05:17:51.829Z,185
2018-05-16T05:18:17.543Z,185
2018-05-16T05:18:43.033Z,185
2018-05-16T05:19:08.433Z,190
2018-05-16T05:19:33.928Z,190
2018-05-16T05:19:59.418Z,190
2018-05-16T05:20:25.005Z,190
2018-05-16T05:20:50.436Z,190
2018-05-16T05:21:15.929Z,195
2018-05-16T05:21:41.444Z,195
2018-05-16T05:22:06.928Z,195
2018-05-16T05:22:32.412Z,195
2018-05-16T05:22:57.882Z,195
2018-05-16T05:23:23.411Z,195
2018-05-16T05:23:49.345Z,200
2018-05-16T05:24:15.131Z,200
2018-05-16T05:24:41.083Z,200
2018-05-16T05:25:06.591Z,200
2018-05-16T05:25:32.237Z,200
2018-05-16T05:25:57.793Z,200
2018-05-16T05:26:23.251Z,200
2018-05-16T05:26:48.744Z,200
2018-05-16T05:27:14.261Z,200
2018-05-16T05:27:39.749Z,205
2018-05-16T05:28:05.233Z,205
2018-05-16T05:28:30.714Z,205
2018-05-16T05:28:56.220Z,205
2018-05-16T05:29:21.728Z,205
2018-05-16T05:29:47.320Z,205
2018-05-16T05:30:12.885Z,205
2018-05-16T05:30:38.302Z,205
2018-05-16T05:31:03.822Z,205
2018-05-16T05:31:29.307Z,205
2018-05-16T05:31:55.083Z,210
2018-05-16T05:32:20.532Z,210
2018-05-16T05:32:46.058Z,210
2018-05-16T05:33:11.542Z,210
2018-05-16T05:33:37.045Z,210
2018-05-16T05:34:02.683Z,210
2018-05-16T05:34:28.056Z,215
2018-05-16T05:34:53.546Z,215
2018-05-16T05:35:19.037Z,215
2018-05-16T05:35:44.539Z,220
2018-05-16T05:36:10.013Z,220
2018-05-16T05:36:35.537Z,220
2018-05-16T05:37:01.135Z,225
2018-05-16T05:37:26.647Z,225
2018-05-16T05:37:52.172Z,225
2018-05-16T05:38:17.675Z,230
2018-05-16T05:38:43.170Z,230
2018-05-16T05:39:08.675Z,235
2018-05-16T05:39:34.215Z,235
2018-05-16T05:39:59.741Z,240
2018-05-16T05:40:25.208Z,245
2018-05-16T05:40:51.064Z,255
2018-05-16T05:41:16.486Z,250
2018-05-16T05:41:42.057Z,255
2018-05-16T05:42:07.544Z,265
2018-05-16T05:42:33.141Z,280
2018-05-16T05:42:58.672Z,295
2018-05-16T05:43:24.187Z,320
2018-05-16T05:43:49.837Z,330
2018-05-16T05:44:15.318Z,330
2018-05-16T05:44:40.863Z,330
2018-05-16T05:45:06.357Z,335
2018-05-16T05:45:31.813Z,345
2018-05-16T05:45:57.343Z,360
2018-05-16T05:47:20.832Z,375
2018-05-16T05:47:46.357Z,375
2018-05-16T05:48:11.832Z,340
2018-05-16T05:48:37.324Z,295
2018-05-16T05:49:02.807Z,365
2018-05-16T05:49:28.314Z,370
2018-05-16T05:49:53.824Z,290
2018-05-16T05:50:19.310Z,370
2018-05-16T05:50:44.822Z,385
2018-05-16T05:51:10.358Z,380
2018-05-16T05:51:35.848Z,400
2018-05-16T05:52:01.430Z,315
2018-05-16T05:52:26.907Z,290
2018-05-16T05:52:52.387Z,250
2018-05-16T05:53:17.868Z,235
2018-05-16T05:53:43.376Z,260
2018-05-16T05:54:08.855Z,500
2018-05-16T05:54:34.363Z,545
2018-05-16T05:54:59.871Z,620
2018-05-16T05:55:25.360Z,525
2018-05-16T05:55:50.830Z,365
2018-05-16T05:56:16.348Z,265
2018-05-16T05:56:41.875Z,250
2018-05-16T05:57:07.346Z,265
2018-05-16T05:57:32.851Z,620
2018-05-16T05:57:58.380Z,860
2018-05-16T05:58:23.884Z,825
2018-05-16T05:58:49.379Z,610
2018-05-16T05:59:14.850Z,515
2018-05-16T05:59:40.334Z,725
2018-05-16T06:00:05.940Z,860
2018-05-16T06:00:31.351Z,870
2018-05-16T06:00:56.832Z,870
2018-05-16T06:01:22.320Z,475
2018-05-16T06:01:47.804Z,860
2018-05-16T06:02:13.302Z,925
2018-05-16T06:02:38.813Z,810
2018-05-16T06:03:04.281Z,455
2018-05-16T06:03:29.785Z,345
2018-05-16T06:03:55.342Z,590
2018-05-16T06:04:20.880Z,940
2018-05-16T06:04:46.386Z,350
2018-05-16T06:05:11.916Z,325
2018-05-16T06:05:37.414Z,300
2018-05-16T06:06:02.910Z,485
2018-05-16T06:06:28.419Z,310
2018-05-16T06:06:53.914Z,760
2018-05-16T06:07:19.409Z,370
2018-05-16T06:07:44.877Z,730
2018-05-16T06:08:10.382Z,685
2018-05-16T06:08:35.919Z,290
2018-05-16T06:09:01.466Z,265
2018-05-16T06:09:26.932Z,260
2018-05-16T06:09:52.478Z,285
2018-05-16T06:10:18.063Z,585
2018-05-16T06:10:43.512Z,990
2018-05-16T06:11:09.007Z,910
2018-05-16T06:11:34.482Z,370
2018-05-16T06:11:59.974Z,410
2018-05-16T06:12:25.482Z,650
2018-05-16T06:12:51.032Z,365
2018-05-16T06:13:16.491Z,345
2018-05-16T06:13:42.003Z,340
2018-05-16T06:14:07.474Z,345
2018-05-16T06:14:32.979Z,360
2018-05-16T06:14:58.469Z,495
2018-05-16T06:15:23.951Z,335
2018-05-16T06:15:49.485Z,340
2018-05-16T06:16:15.050Z,340
2018-05-16T06:16:40.499Z,350
2018-05-16T06:17:05.995Z,690
2018-05-16T06:17:31.535Z,735
2018-05-16T06:17:56.992Z,1085
2018-05-16T06:18:22.527Z,1130
2018-05-16T06:18:48.085Z,1155
2018-05-16T06:19:13.550Z,1130
2018-05-16T06:19:39.131Z,1115
2018-05-16T06:20:04.588Z,770
2018-05-16T06:20:30.135Z,1140
2018-05-16T06:20:56.236Z,1060
2018-05-16T06:21:21.771Z,1125
2018-05-16T06:21:47.272Z,1125
2018-05-16T06:22:12.748Z,1080
2018-05-16T06:22:38.236Z,1105
2018-05-16T06:23:03.755Z,1100
2018-05-16T06:23:29.233Z,1050
2018-05-16T06:23:54.779Z,940
2018-05-16T06:24:20.343Z,765
2018-05-16T06:24:45.861Z,435
2018-05-16T06:25:11.367Z,355
2018-05-16T06:25:36.967Z,390
2018-05-16T06:26:02.531Z,275
2018-05-16T06:26:28.067Z,280
2018-05-16T06:26:53.559Z,325
2018-05-16T06:27:19.311Z,360
2018-05-16T06:27:44.590Z,400
2018-05-16T06:28:10.164Z,640
2018-05-16T06:28:35.637Z,720
2018-05-16T06:29:01.348Z,915
2018-05-16T06:29:27.023Z,1025
2018-05-16T06:29:52.702Z,1070
2018-05-16T06:30:18.254Z,1110
2018-05-16T06:30:43.850Z,1115
2018-05-16T06:31:09.668Z,1070
2018-05-16T06:31:35.052Z,1015
2018-05-16T06:32:00.536Z,985
2018-05-16T06:32:26.030Z,925
2018-05-16T06:32:51.573Z,660
2018-05-16T06:33:17.019Z,835
2018-05-16T06:33:42.521Z,765
2018-05-16T06:34:08.044Z,820
2018-05-16T06:34:33.617Z,785
2018-05-16T06:34:59.037Z,725
2018-05-16T06:35:24.524Z,660
2018-05-16T06:35:50.278Z,540
2018-05-16T06:36:16.078Z,470
2018-05-16T06:36:41.976Z,385
2018-05-16T06:37:07.564Z,330
2018-05-16T06:37:33.429Z,310
2018-05-16T06:37:59.037Z,305
2018-05-16T06:38:25.158Z,310
2018-05-16T06:38:50.904Z,310
2018-05-16T06:39:16.663Z,315
2018-05-16T06:39:41.890Z,315
2018-05-16T06:40:08.208Z,330
2018-05-16T06:40:33.299Z,335
2018-05-16T06:42:02.470Z,325
2018-05-16T06:42:27.969Z,320
2018-05-16T06:42:53.590Z,320
2018-05-16T06:43:19.309Z,315
2018-05-16T06:43:45.010Z,310
2018-05-16T06:44:10.850Z,310
2018-05-16T06:44:36.263Z,315
2018-05-16T06:45:02.326Z,320
2018-05-16T06:45:28.173Z,325
2018-05-16T06:45:53.768Z,325
2018-05-16T06:46:19.494Z,330
2018-05-16T06:46:45.068Z,330
2018-05-16T06:47:10.889Z,330
2018-05-16T06:47:36.805Z,325
2018-05-16T06:48:02.758Z,315
2018-05-16T06:48:28.379Z,310
2018-05-16T06:48:53.960Z,300
2018-05-16T06:49:19.576Z,300
2018-05-16T06:49:45.218Z,290
2018-05-16T06:50:10.971Z,280
2018-05-16T06:50:36.484Z,255
2018-05-16T06:51:02.201Z,240
2018-05-16T06:51:27.729Z,230
2018-05-16T06:51:53.432Z,230
2018-05-16T06:52:18.981Z,240
2018-05-16T06:52:44.478Z,255
2018-05-16T06:53:10.193Z,260
2018-05-16T06:53:35.672Z,265
2018-05-16T06:54:01.208Z,265
2018-05-16T06:54:26.811Z,275
2018-05-16T06:54:52.242Z,270
2018-05-16T06:55:17.751Z,275
2018-05-16T06:55:43.509Z,280
2018-05-16T06:56:08.978Z,255
2018-05-16T06:56:34.549Z,230
2018-05-16T06:57:00.120Z,215
2018-05-16T06:57:25.909Z,195
2018-05-16T06:57:52.747Z,180
2018-05-16T06:58:17.325Z,165
2018-05-16T06:58:42.795Z,155
2018-05-16T06:59:08.318Z,150
2018-05-16T06:59:33.844Z,145
2018-05-16T06:59:59.366Z,140
2018-05-16T07:00:24.893Z,135
2018-05-16T07:00:50.398Z,130
2018-05-16T07:01:15.883Z,130
2018-05-16T07:01:41.683Z,135
2018-05-16T07:02:07.179Z,140
2018-05-16T07:02:32.670Z,150
2018-05-16T07:02:58.621Z,155
2018-05-16T07:03:24.250Z,165
2018-05-16T07:03:49.760Z,160
2018-05-16T07:04:15.253Z,155
2018-05-16T07:04:40.942Z,140
2018-05-16T07:05:06.415Z,125
2018-05-16T07:05:31.911Z,110
2018-05-16T07:05:57.411Z,100
2018-05-16T07:06:22.871Z,95
2018-05-16T07:06:48.367Z,95
2018-05-16T07:07:14.131Z,95
2018-05-16T07:07:39.664Z,95
2018-05-16T07:08:05.461Z,90
2018-05-16T07:08:31.135Z,90
2018-05-16T07:08:56.717Z,95
2018-05-16T07:09:22.429Z,100
2018-05-16T07:09:48.143Z,100
2018-05-16T07:10:14.513Z,105
2018-05-16T07:10:40.299Z,110
2018-05-16T07:11:06.085Z,115
2018-05-16T07:11:31.709Z,125
2018-05-16T07:11:58.668Z,130
2018-05-16T07:12:24.196Z,135
2018-05-16T07:12:49.691Z,145
2018-05-16T07:13:15.146Z,150
2018-05-16T07:13:40.658Z,160
2018-05-16T07:14:06.370Z,165
2018-05-16T07:14:31.898Z,175
2018-05-16T07:14:57.386Z,180
2018-05-16T07:15:22.897Z,185
2018-05-16T07:16:46.662Z,165
2018-05-16T07:17:12.016Z,170
2018-05-16T07:17:37.506Z,175
2018-05-16T07:18:03.001Z,180
2018-05-16T07:18:29.069Z,190
2018-05-16T07:18:54.556Z,205
2018-05-16T07:19:20.050Z,215
2018-05-16T07:19:45.746Z,220
2018-05-16T07:20:11.552Z,210
2018-05-16T07:20:37.037Z,195
2018-05-16T07:21:02.558Z,185
2018-05-16T07:21:28.142Z,175
2018-05-16T07:21:53.772Z,170
2018-05-16T07:22:19.252Z,170
2018-05-16T07:22:44.909Z,170
2018-05-16T07:23:10.281Z,175
2018-05-16T07:23:35.758Z,175
2018-05-16T07:24:01.321Z,180
2018-05-16T07:24:26.906Z,180
2018-05-16T07:24:52.460Z,175
2018-05-16T07:25:17.901Z,165
2018-05-16T07:25:43.443Z,155
2018-05-16T07:27:01.905Z,170
2018-05-16T07:27:27.406Z,185
2018-05-16T07:27:53.134Z,200
2018-05-16T07:28:18.768Z,210
2018-05-16T07:28:44.269Z,215
2018-05-16T07:29:09.699Z,220
2018-05-16T07:29:35.323Z,225
2018-05-16T07:30:00.933Z,225
2018-05-16T07:30:26.400Z,215
2018-05-16T07:30:51.933Z,200
2018-05-16T07:31:17.365Z,180
2018-05-16T07:31:42.843Z,160
2018-05-16T07:32:08.359Z,150
2018-05-16T07:32:33.929Z,150
2018-05-16T07:32:59.298Z,155
2018-05-16T07:33:24.826Z,150
2018-05-16T07:33:50.383Z,140
2018-05-16T07:34:15.981Z,135
2018-05-16T07:34:41.446Z,135
2018-05-16T07:35:07.411Z,145
2018-05-16T07:35:33.022Z,155
2018-05-16T07:35:58.824Z,155
2018-05-16T07:36:24.655Z,160
2018-05-16T07:36:50.325Z,160
2018-05-16T07:37:15.798Z,165
2018-05-16T07:37:41.466Z,170
2018-05-16T07:38:07.096Z,165
2018-05-16T07:38:32.987Z,165
2018-05-16T07:38:58.701Z,165
2018-05-16T07:39:24.254Z,160
2018-05-16T07:39:50.120Z,160
2018-05-16T07:40:15.753Z,165
2018-05-16T07:40:41.778Z,165
2018-05-16T07:41:07.387Z,165
2018-05-16T07:41:32.950Z,155
2018-05-16T07:41:58.474Z,155
2018-05-16T07:42:23.955Z,165
2018-05-16T07:42:49.512Z,170
2018-05-16T07:43:15.180Z,175
2018-05-16T07:43:40.718Z,170
2018-05-16T07:44:06.229Z,165
2018-05-16T07:44:31.733Z,165
2018-05-16T07:44:57.223Z,170
2018-05-16T07:45:22.910Z,175
2018-05-16T07:45:48.951Z,180
2018-05-16T07:46:14.623Z,180
2018-05-16T07:46:40.289Z,180
2018-05-16T07:47:05.948Z,180
2018-05-16T07:47:31.665Z,185
2018-05-16T07:47:57.241Z,185
2018-05-16T07:48:22.847Z,190
2018-05-16T07:48:48.636Z,195
2018-05-16T07:49:14.657Z,210
2018-05-16T07:49:40.461Z,215
2018-05-16T07:50:06.153Z,225
2018-05-16T07:50:31.764Z,230
2018-05-16T07:50:57.226Z,225
2018-05-16T07:51:22.720Z,220
2018-05-16T07:51:48.212Z,215
2018-05-16T07:52:13.738Z,210
2018-05-16T07:52:39.379Z,210
2018-05-16T07:53:04.976Z,200
2018-05-16T07:53:30.603Z,200
2018-05-16T07:53:56.201Z,200
2018-05-16T07:54:21.708Z,205
2018-05-16T07:54:47.195Z,215
2018-05-16T07:55:12.769Z,225
2018-05-16T07:55:38.296Z,240
2018-05-16T07:56:03.914Z,255
2018-05-16T07:56:29.310Z,265
2018-05-16T07:56:54.898Z,275
2018-05-16T07:57:20.723Z,300
2018-05-16T07:57:46.374Z,310
2018-05-16T07:58:12.038Z,315
2018-05-16T07:58:37.517Z,315
2018-05-16T07:59:03.028Z,310
2018-05-16T07:59:28.757Z,305
2018-05-16T07:59:54.619Z,305
2018-05-16T08:00:20.067Z,305
2018-05-16T08:00:45.708Z,295
2018-05-16T08:01:11.546Z,295
2018-05-16T08:01:37.390Z,290
2018-05-16T08:02:03.039Z,285
2018-05-16T08:02:28.734Z,285
2018-05-16T08:02:54.271Z,295
2018-05-16T08:03:20.065Z,305
2018-05-16T08:03:45.603Z,320
2018-05-16T08:04:11.405Z,335
2018-05-16T08:04:37.065Z,355
2018-05-16T08:05:02.898Z,380
2018-05-16T08:05:28.787Z,400
2018-05-16T08:05:54.355Z,410
2018-05-16T08:06:20.124Z,415
2018-05-16T08:06:46.081Z,420
2018-05-16T08:07:11.830Z,430
2018-05-16T08:07:37.344Z,430
2018-05-16T08:08:02.895Z,430
2018-05-16T08:08:28.428Z,425
2018-05-16T08:08:54.254Z,405
2018-05-16T08:09:19.633Z,390
2018-05-16T08:09:45.413Z,380
2018-05-16T08:10:10.829Z,370
2018-05-16T08:10:36.519Z,365
2018-05-16T08:11:02.050Z,360
2018-05-16T08:11:27.620Z,365
2018-05-16T08:11:53.410Z,355
2018-05-16T08:12:19.188Z,355
2018-05-16T08:12:45.435Z,350
2018-05-16T08:13:10.905Z,345
2018-05-16T08:13:36.799Z,335
2018-05-16T08:14:02.636Z,320
2018-05-16T08:14:28.533Z,310
2018-05-16T08:14:54.241Z,305
2018-05-16T08:15:20.341Z,310
2018-05-16T08:15:46.077Z,310
2018-05-16T08:16:11.571Z,320
2018-05-16T08:16:37.279Z,325
2018-05-16T08:17:02.999Z,335
2018-05-16T08:17:28.568Z,340
2018-05-16T08:17:54.066Z,355
2018-05-16T08:18:19.801Z,370
2018-05-16T08:18:45.383Z,395
2018-05-16T08:19:11.016Z,415
2018-05-16T08:19:36.893Z,430
2018-05-16T08:20:02.416Z,455
2018-05-16T08:20:27.984Z,450
2018-05-16T08:20:53.719Z,440
2018-05-16T08:21:19.506Z,440
2018-05-16T08:21:45.186Z,455
2018-05-16T08:22:11.236Z,465
2018-05-16T08:22:37.530Z,475
2018-05-16T08:23:03.205Z,485
2018-05-16T08:23:28.847Z,485
2018-05-16T08:23:54.390Z,485
2018-05-16T08:24:20.051Z,495
2018-05-16T08:24:45.644Z,505
2018-05-16T08:25:11.279Z,510
2018-05-16T08:25:36.894Z,515
2018-05-16T08:26:02.519Z,515
2018-05-16T08:26:28.109Z,515
2018-05-16T08:26:53.639Z,515
2018-05-16T08:27:19.290Z,510
2018-05-16T08:27:44.837Z,490
2018-05-16T08:28:10.400Z,460
2018-05-16T08:28:36.065Z,435
2018-05-16T08:29:01.575Z,420
2018-05-16T08:29:27.235Z,415
2018-05-16T08:29:52.874Z,425
2018-05-16T08:30:18.547Z,425
2018-05-16T08:30:44.166Z,420
2018-05-16T08:31:09.872Z,425
2018-05-16T08:31:35.499Z,430
2018-05-16T08:32:01.195Z,430
2018-05-16T08:32:26.858Z,435
2018-05-16T08:32:52.269Z,460
2018-05-16T08:33:17.950Z,455
2018-05-16T08:33:43.576Z,455
2018-05-16T08:34:09.173Z,440
2018-05-16T08:34:34.760Z,430
2018-05-16T08:35:00.418Z,430
2018-05-16T08:35:25.984Z,435
2018-05-16T08:35:51.613Z,430
2018-05-16T08:36:17.250Z,450
2018-05-16T08:36:42.908Z,445
2018-05-16T08:37:08.666Z,465
2018-05-16T08:37:34.334Z,485
2018-05-16T08:38:00.025Z,485
2018-05-16T08:38:25.694Z,490
2018-05-16T08:38:51.255Z,480
2018-05-16T08:39:16.931Z,485
2018-05-16T08:39:42.567Z,485
2018-05-16T08:40:08.191Z,490
2018-05-16T08:40:34.008Z,480
2018-05-16T08:40:59.681Z,510
2018-05-16T08:41:25.283Z,525
2018-05-16T08:41:51.005Z,520
2018-05-16T08:42:16.573Z,500
2018-05-16T08:42:42.180Z,460
2018-05-16T08:43:07.894Z,485
2018-05-16T08:43:33.385Z,440
2018-05-16T08:43:59.047Z,435
2018-05-16T08:44:24.639Z,435
2018-05-16T08:44:50.258Z,435
2018-05-16T08:45:16.031Z,425
2018-05-16T08:45:41.634Z,450
2018-05-16T08:46:07.422Z,430
2018-05-16T08:46:33.023Z,455
2018-05-16T08:46:58.704Z,415
2018-05-16T08:47:24.591Z,415
2018-05-16T08:47:50.249Z,420
2018-05-16T08:48:16.431Z,425
2018-05-16T08:48:42.133Z,415
2018-05-16T08:49:07.998Z,420
2018-05-16T08:49:34.492Z,445
2018-05-16T08:50:00.181Z,430
2018-05-16T08:50:26.007Z,430
2018-05-16T08:50:51.667Z,420
2018-05-16T08:51:17.276Z,420
2018-05-16T08:51:42.970Z,430
2018-05-16T08:52:08.868Z,435
2018-05-16T08:52:34.638Z,445
2018-05-16T08:53:00.350Z,445
2018-05-16T08:53:25.984Z,445
2018-05-16T08:53:51.584Z,445
2018-05-16T08:54:17.448Z,450
2018-05-16T08:54:43.208Z,445
2018-05-16T08:55:08.754Z,460
2018-05-16T08:55:34.510Z,470
2018-05-16T08:56:00.126Z,485
2018-05-16T08:57:09.198Z,505
2018-05-16T08:57:34.825Z,505
2018-05-16T08:58:00.554Z,535
2018-05-16T08:58:26.139Z,520
2018-05-16T08:58:51.886Z,540
2018-05-16T08:59:17.544Z,535
2018-05-16T08:59:43.322Z,525
2018-05-16T09:00:08.859Z,525
2018-05-16T09:00:34.328Z,525
2018-05-16T09:00:59.962Z,520
2018-05-16T09:01:25.570Z,505
2018-05-16T09:01:51.180Z,505
2018-05-16T09:02:16.845Z,490
2018-05-16T09:02:42.480Z,460
2018-05-16T09:03:08.132Z,450
2018-05-16T09:03:33.633Z,450
2018-05-16T09:03:59.103Z,470
2018-05-16T09:04:24.663Z,470
2018-05-16T09:04:50.270Z,465
2018-05-16T09:05:15.720Z,475
2018-05-16T09:05:41.293Z,470
2018-05-16T09:06:06.918Z,475
2018-05-16T09:06:32.421Z,480
2018-05-16T09:06:57.918Z,490
2018-05-16T09:07:23.435Z,495
2018-05-16T09:07:48.916Z,500
2018-05-16T09:08:14.429Z,500
2018-05-16T09:08:39.941Z,495
2018-05-16T09:09:05.487Z,490
2018-05-16T09:09:31.000Z,490
2018-05-16T09:09:57.154Z,485
2018-05-16T09:10:22.579Z,485
2018-05-16T09:10:48.413Z,485
2018-05-16T09:11:13.937Z,490
2018-05-16T09:11:39.422Z,485
2018-05-16T09:12:05.002Z,480
2018-05-16T09:12:30.614Z,490
2018-05-16T09:12:56.133Z,480
2018-05-16T09:13:21.659Z,480
2018-05-16T09:13:47.224Z,475
2018-05-16T09:14:12.800Z,485
2018-05-16T09:14:38.332Z,485
2018-05-16T09:15:03.926Z,485
2018-05-16T09:15:29.419Z,480
2018-05-16T09:15:54.985Z,490
2018-05-16T09:16:20.642Z,480
2018-05-16T09:16:46.285Z,485
2018-05-16T09:17:12.005Z,485
2018-05-16T09:17:37.414Z,485
2018-05-16T09:18:02.871Z,485
2018-05-16T09:18:28.472Z,495
2018-05-16T09:18:53.969Z,495
2018-05-16T09:19:19.415Z,495
2018-05-16T09:19:45.013Z,495
2018-05-16T09:20:10.549Z,490
2018-05-16T09:20:36.354Z,490
2018-05-16T09:21:01.882Z,490
2018-05-16T09:21:27.382Z,480
2018-05-16T09:21:52.892Z,480
2018-05-16T09:22:18.573Z,480
2018-05-16T09:22:44.264Z,480
2018-05-16T09:23:09.949Z,475
2018-05-16T09:23:35.568Z,470
2018-05-16T09:24:01.017Z,475
2018-05-16T09:24:26.770Z,475
2018-05-16T09:24:52.697Z,475
2018-05-16T09:25:18.343Z,470
2018-05-16T09:25:43.910Z,465
2018-05-16T09:26:09.509Z,460
2018-05-16T09:26:35.321Z,460
2018-05-16T09:27:00.956Z,460
2018-05-16T09:27:26.781Z,460
2018-05-16T09:27:52.412Z,445
2018-05-16T09:28:17.909Z,430
2018-05-16T09:28:43.687Z,410
2018-05-16T09:29:09.219Z,400
2018-05-16T09:29:35.134Z,385
2018-05-16T09:30:00.738Z,375
2018-05-16T09:30:26.523Z,365
2018-05-16T09:30:52.187Z,365
2018-05-16T09:31:17.716Z,360
2018-05-16T09:31:43.330Z,355
2018-05-16T09:32:09.310Z,355
2018-05-16T09:32:34.888Z,355
2018-05-16T09:33:00.561Z,360
2018-05-16T09:33:26.328Z,365
2018-05-16T09:33:51.877Z,370
2018-05-16T09:34:17.726Z,365
2018-05-16T09:34:43.448Z,360
2018-05-16T09:35:09.047Z,355
2018-05-16T09:35:34.765Z,355
2018-05-16T09:36:00.352Z,355
2018-05-16T09:36:25.899Z,350
2018-05-16T09:36:51.651Z,350
2018-05-16T09:37:17.347Z,350
2018-05-16T09:37:43.408Z,350
2018-05-16T09:38:09.240Z,355
2018-05-16T09:38:35.002Z,350
2018-05-16T09:39:00.603Z,350
2018-05-16T09:39:26.218Z,350
2018-05-16T09:39:52.104Z,360
2018-05-16T09:40:17.667Z,365
2018-05-16T09:40:43.073Z,365
2018-05-16T09:41:08.669Z,365
2018-05-16T09:41:34.284Z,370
2018-05-16T09:41:59.809Z,380
2018-05-16T09:42:25.479Z,395
2018-05-16T09:42:50.973Z,405
2018-05-16T09:43:16.595Z,405
2018-05-16T09:43:42.071Z,400
2018-05-16T09:44:07.695Z,395
2018-05-16T09:44:33.092Z,395
2018-05-16T09:44:58.648Z,395
2018-05-16T09:45:24.116Z,395
2018-05-16T09:45:49.667Z,395
2018-05-16T09:46:15.125Z,395
2018-05-16T09:46:40.591Z,405
2018-05-16T09:47:06.108Z,405
2018-05-16T09:47:31.667Z,395
2018-05-16T09:47:57.149Z,385
2018-05-16T09:48:22.643Z,365
2018-05-16T09:48:48.155Z,345
2018-05-16T09:49:13.644Z,330
2018-05-16T09:49:39.157Z,325
2018-05-16T09:50:04.649Z,320
2018-05-16T09:51:17.949Z,330
2018-05-16T09:51:43.462Z,340
2018-05-16T09:52:08.966Z,350
2018-05-16T09:52:34.464Z,355
2018-05-16T09:52:59.962Z,365
2018-05-16T09:53:25.493Z,380
2018-05-16T09:53:51.106Z,390
2018-05-16T09:54:16.631Z,405
2018-05-16T09:54:42.126Z,420
2018-05-16T09:55:07.635Z,440
2018-05-16T09:55:33.173Z,450
2018-05-16T09:55:58.656Z,465
2018-05-16T09:56:24.138Z,475
2018-05-16T09:56:49.648Z,480
2018-05-16T09:57:15.364Z,485
2018-05-16T09:57:40.881Z,490
2018-05-16T09:58:06.399Z,500
2018-05-16T09:58:31.896Z,505
2018-05-16T09:58:57.389Z,515
2018-05-16T09:59:22.853Z,510
2018-05-16T09:59:48.375Z,505
2018-05-16T10:00:13.889Z,500
2018-05-16T10:00:39.492Z,490
2018-05-16T10:01:04.970Z,490
2018-05-16T10:01:30.465Z,480
2018-05-16T10:01:55.953Z,480
2018-05-16T10:02:21.487Z,480
2018-05-16T10:02:47.070Z,470
2018-05-16T10:03:12.444Z,460
2018-05-16T10:03:37.943Z,440
2018-05-16T10:04:03.405Z,430
2018-05-16T10:04:28.950Z,420
2018-05-16T10:04:54.441Z,420
2018-05-16T10:05:19.996Z,425
2018-05-16T10:05:45.592Z,435
2018-05-16T10:06:11.181Z,445
2018-05-16T10:06:36.773Z,445
2018-05-16T10:07:02.359Z,450
2018-05-16T10:07:27.902Z,445
2018-05-16T10:07:53.403Z,440
2018-05-16T10:08:18.876Z,440
2018-05-16T10:08:44.405Z,440
2018-05-16T10:09:09.898Z,445
2018-05-16T10:09:35.392Z,445
2018-05-16T10:10:00.869Z,445